• Join FlightAware (Why Join?)
  • Login
  • US Flag 
01:48PM EST


 

Airport Tracker/Info


-or-


 

Live Flight TrackerFlight Track Log ✈ BJS542 ✈ 19-Aug-2013 ✈ CYZD - KIND

Flight Track Log - Related Links

Times and Time Zones

All times are in EDT time to prevent confusion due to time zone crossing. See the BJS542 flight status page for this flight to view local times or setup timezone preferences in your user account.

Time Position Orientation Groundspeed Altitude Reporting Facility
EDT Latitude Longitude Course Direction KTS MPH feet Rate Location/Type
08:07AM 43.7167 -79.4333 234° Southwest 160 184 1,600  Level Toronto Center
08:08AM 43.7667 -79.4000 26° Northeast 230 265 1,500 -60 Descending Toronto Center
08:09AM 43.8000 -79.4667 305° West 200 230 1,500 1,260 Level Toronto Center
08:10AM 43.8500 -79.5167 324° Northwest 220 253 4,100 3,360 Climbing Toronto Center
08:11AM 43.9000 -79.5833 316° Northwest 260 299 8,300 3,960 Climbing Toronto Center
08:12AM 43.1942 -80.0108 234° Southwest  Level FlightAware Approximate
08:12AM 43.8667 -79.7000 248° West 290 334 12,100  Level Toronto Center
08:13AM 43.8000 -79.7667 216° Southwest 310 357 15,300 3,000 Climbing Toronto Center
08:14AM 43.7167 -79.8667 221° Southwest 350 403 18,100 2,880 Climbing Toronto Center
08:15AM 43.6333 -79.9500 216° Southwest 370 426 21,100 2,520 Climbing Toronto Center
08:16AM 43.5500 -80.0167 210° Southwest 390 449 23,200 2,100 Climbing Toronto Center
08:17AM 43.4500 -80.1333 220° Southwest 420 483 25,300 1,980 Climbing Toronto Center
08:18AM 43.3500 -80.2333 216° Southwest 440 506 27,200 1,980 Climbing Toronto Center
08:19AM 43.2500 -80.3500 220° Southwest 450 518 29,300 1,980 Climbing Toronto Center
08:20AM 43.1500 -80.4333 211° Southwest 460 529 31,200 1,980 Climbing Toronto Center
08:21AM 43.0500 -80.5500 220° Southwest 460 529 33,300 2,040 Climbing Toronto Center
08:22AM 42.9500 -80.6333 211° Southwest 460 529 35,300 1,860 Climbing Toronto Center
08:23AM 42.8644 -80.7306 220° Southwest 467 537 36,900 1,800 Climbing Cleveland Center
08:24AM 42.7642 -80.8319 217° Southwest 454 522 38,800 1,440 Climbing Cleveland Center
08:25AM 42.6661 -80.9247 215° Southwest 449 517 39,800 600 Climbing Cleveland Center
08:26AM 42.5656 -81.0258 217° Southwest 449 517 40,000 60 Climbing Cleveland Center
08:27AM 42.4653 -81.1208 215° Southwest 449 517 40,000 -300 Level Cleveland Center
08:28AM 42.3647 -81.2183 216° Southwest 449 517 39,400 -840 Descending Cleveland Center
08:29AM 42.2639 -81.3156 216° Southwest 454 522 38,400 -720 Descending Cleveland Center
08:30AM 42.1550 -81.4178 215° Southwest 447 514 38,000 -420 Descending Cleveland Center
08:31AM 42.0519 -81.5172 216° Southwest 452 520 37,600  Descending Cleveland Center
08:32AM 41.9492 -81.6106 214° Southwest 452 520 38,000 180 Climbing Cleveland Center
08:33AM 41.8461 -81.7092 215° Southwest 457 526 38,000  Level Cleveland Center
08:34AM 41.7697 -81.8386 232° Southwest 443 510 38,000  Level Cleveland Center
08:35AM 41.7094 -81.9878 242° Southwest 449 517 38,000  Level Cleveland Center
08:36AM 41.6472 -82.1364 241° Southwest 459 528 38,000  Level Cleveland Center
08:37AM 41.5889 -82.2822 242° Southwest 454 522 38,000  Level Cleveland Center
08:38AM 41.5283 -82.4250 241° Southwest 454 522 38,000  Level Cleveland Center
08:39AM 41.4675 -82.5728 241° Southwest 454 522 38,000  Level Cleveland Center
08:40AM 41.4064 -82.7175 241° Southwest 454 522 38,000  Level Cleveland Center
08:41AM 41.3472 -82.8594 241° Southwest 449 517 38,000 -480 Level Cleveland Center
08:42AM 41.2881 -83.0011 241° Southwest 454 522 37,100 -1,020 Descending Cleveland Center
08:43AM 41.2267 -83.1425 240° Southwest 454 522 36,000 -1,440 Descending Cleveland Center
08:45AM 41.0817 -83.4861 241° Southwest 461 531 32,300 -1,200 Descending Indianapolis Center
08:46AM 41.0197 -83.6289 240° Southwest 474 545 32,000 -300 Descending Indianapolis Center
08:47AM 40.9436 -83.8036 240° Southwest 469 540 31,700 -1,020 Descending Indianapolis Center
08:48AM 40.8792 -83.9522 240° Southwest 466 536 30,000 -1,680 Descending Indianapolis Center
08:49AM 40.8133 -84.1036 240° Southwest 471 542 28,300 -1,020 Descending Indianapolis Center
08:50AM 40.7494 -84.2500 240° Southwest 462 532 28,000 -180 Descending Indianapolis Center
08:51AM 40.6850 -84.3950 240° Southwest 456 525 28,000  Level Indianapolis Center
08:52AM 40.6200 -84.5425 240° Southwest 462 532 28,000 -1,260 Level Indianapolis Center
08:53AM 40.5472 -84.7072 240° Southwest 445 512 25,500 -1,980 Descending Indianapolis Center
08:54AM 40.4861 -84.8419 239° Southwest 430 495 24,000 -840 Descending Indianapolis Center
08:55AM 40.4336 -84.9575 239° Southwest 430 495 23,800 -1,500 Descending Indianapolis Center
08:56AM 40.3608 -85.1206 240° Southwest 434 499 21,000 -2,520 Descending Indianapolis Center
08:57AM 40.3017 -85.2528 240° Southwest 426 490 18,600 -2,100 Descending Indianapolis Center
08:58AM 40.2447 -85.3767 239° Southwest 403 464 16,700 -1,920 Descending Indianapolis Center
08:59AM 40.1953 -85.4928 241° Southwest 372 428 14,700 -1,980 Descending Indianapolis Center
09:00AM 40.1442 -85.6125 241° Southwest 378 435 12,700 -1,800 Descending Indianapolis Center
09:02AM 40.0933 -85.7292 240° Southwest 372 428 11,000 -1,020 Descending Indianapolis Center
09:03AM 40.0358 -85.8614 240° Southwest 353 406 10,700 -780 Descending Indianapolis Center
09:04AM 39.9953 -85.9553 241° Southwest 302 348 9,500 -1,200 Descending Indianapolis Center
09:05AM 39.9561 -86.0436 240° Southwest 283 326 8,300 -1,200 Descending Indianapolis Center
09:06AM 39.9181 -86.1308 240° Southwest 280 322 7,100 -660 Descending Indianapolis Center
09:07AM 39.8789 -86.2203 240° Southwest 286 329 7,000 -60 Descending Indianapolis Center
09:08AM 39.8239 -86.3139 233° Southwest 276 318 7,000 -600 Level Indianapolis Center
09:09AM 39.7714 -86.3792 224° Southwest 271 312 5,800 -1,260 Descending Indianapolis Center
09:10AM 39.7183 -86.4469 225° Southwest 273 314 4,500 -1,080 Descending Indianapolis Center
09:11AM 39.6678 -86.4958 217° Southwest 254 292 3,700 -780 Descending Indianapolis Center
09:12AM 39.6294 -86.4414 132° Southeast 223 257 3,000 -780 Descending Indianapolis Center
09:13AM 39.6544 -86.3625 68° East 201 231 2,100 -840 Descending Indianapolis Center
09:14AM 39.6831 -86.3264 44° Northeast 152 175 1,300 -660 Descending Indianapolis Center
09:15AM 39.7125 -86.2897 44° Northeast 143 165 800 -540 Descending Indianapolis Center